sensor_id;sensor_type;location;lat;lon;timestamp;temperature;humidity
43673;DHT22;41723;49.326;8.430;2022-09-17T00:01:37;13.40;99.90
43673;DHT22;41723;49.326;8.430;2022-09-17T00:04:02;13.40;99.90
43673;DHT22;41723;49.326;8.430;2022-09-17T00:06:29;13.50;99.90
43673;DHT22;41723;49.326;8.430;2022-09-17T00:08:55;13.40;99.90
43673;DHT22;41723;49.326;8.430;2022-09-17T00:11:22;13.50;99.90
43673;DHT22;41723;49.326;8.430;2022-09-17T00:13:48;13.50;99.90
43673;DHT22;41723;49.326;8.430;2022-09-17T00:16:21;13.40;99.90
43673;DHT22;41723;49.326;8.430;2022-09-17T00:18:46;13.50;99.90
43673;DHT22;41723;49.326;8.430;2022-09-17T00:21:16;13.40;99.90
43673;DHT22;41723;49.326;8.430;2022-09-17T00:23:42;13.30;99.90
43673;DHT22;41723;49.326;8.430;2022-09-17T00:26:07;13.40;99.90
43673;DHT22;41723;49.326;8.430;2022-09-17T00:28:33;13.30;99.90
43673;DHT22;41723;49.326;8.430;2022-09-17T00:30:59;13.30;99.90
43673;DHT22;41723;49.326;8.430;2022-09-17T00:33:24;13.20;99.90
43673;DHT22;41723;49.326;8.430;2022-09-17T00:36:00;13.30;99.90
43673;DHT22;41723;49.326;8.430;2022-09-17T00:38:26;13.20;99.90
43673;DHT22;41723;49.326;8.430;2022-09-17T00:40:51;13.30;99.90
43673;DHT22;41723;49.326;8.430;2022-09-17T00:46:02;13.30;99.90
43673;DHT22;41723;49.326;8.430;2022-09-17T00:48:29;13.20;99.90
43673;DHT22;41723;49.326;8.430;2022-09-17T00:50:55;13.10;99.90
43673;DHT22;41723;49.326;8.430;2022-09-17T00:53:23;13.20;99.90
43673;DHT22;41723;49.326;8.430;2022-09-17T00:55:51;13.10;99.90
43673;DHT22;41723;49.326;8.430;2022-09-17T00:58:20;13.10;99.90
43673;DHT22;41723;49.326;8.430;2022-09-17T01:00:47;13.10;99.90
43673;DHT22;41723;49.326;8.430;2022-09-17T01:03:12;13.20;99.90
43673;DHT22;41723;49.326;8.430;2022-09-17T01:05:45;13.10;99.90
43673;DHT22;41723;49.326;8.430;2022-09-17T01:08:24;13.10;99.90
43673;DHT22;41723;49.326;8.430;2022-09-17T01:11:04;13.10;99.90
43673;DHT22;41723;49.326;8.430;2022-09-17T01:21:28;12.90;99.90
43673;DHT22;41723;49.326;8.430;2022-09-17T01:41:40;13.00;99.90
43673;DHT22;41723;49.326;8.430;2022-09-17T01:44:22;12.90;99.90
43673;DHT22;41723;49.326;8.430;2022-09-17T01:46:56;12.90;99.90
43673;DHT22;41723;49.326;8.430;2022-09-17T01:49:23;12.90;99.90
43673;DHT22;41723;49.326;8.430;2022-09-17T01:51:50;12.90;99.90
43673;DHT22;41723;49.326;8.430;2022-09-17T01:56:50;12.90;99.90
43673;DHT22;41723;49.326;8.430;2022-09-17T02:01:42;12.90;99.90
43673;DHT22;41723;49.326;8.430;2022-09-17T02:04:10;12.90;99.90
43673;DHT22;41723;49.326;8.430;2022-09-17T02:06:39;12.80;99.90
43673;DHT22;41723;49.326;8.430;2022-09-17T02:09:15;12.70;99.90
43673;DHT22;41723;49.326;8.430;2022-09-17T02:11:42;12.70;99.90
43673;DHT22;41723;49.326;8.430;2022-09-17T02:14:10;12.70;99.90
43673;DHT22;41723;49.326;8.430;2022-09-17T02:16:38;12.70;99.90
43673;DHT22;41723;49.326;8.430;2022-09-17T02:19:22;12.60;99.90
43673;DHT22;41723;49.326;8.430;2022-09-17T02:21:55;12.50;99.90
43673;DHT22;41723;49.326;8.430;2022-09-17T02:24:23;12.50;99.90
43673;DHT22;41723;49.326;8.430;2022-09-17T02:26:54;12.50;99.90
43673;DHT22;41723;49.326;8.430;2022-09-17T02:29:23;12.60;99.90
43673;DHT22;41723;49.326;8.430;2022-09-17T02:31:51;12.60;99.90
43673;DHT22;41723;49.326;8.430;2022-09-17T02:34:16;12.50;99.90
43673;DHT22;41723;49.326;8.430;2022-09-17T02:36:42;12.50;99.90
43673;DHT22;41723;49.326;8.430;2022-09-17T02:39:08;12.50;99.90
43673;DHT22;41723;49.326;8.430;2022-09-17T02:52:06;12.50;99.90
43673;DHT22;41723;49.326;8.430;2022-09-17T02:54:45;12.50;99.90
43673;DHT22;41723;49.326;8.430;2022-09-17T02:57:37;12.40;99.90
43673;DHT22;41723;49.326;8.430;2022-09-17T03:00:17;12.50;99.90
43673;DHT22;41723;49.326;8.430;2022-09-17T03:05:18;12.40;99.90
43673;DHT22;41723;49.326;8.430;2022-09-17T03:07:44;12.40;99.90
43673;DHT22;41723;49.326;8.430;2022-09-17T03:10:10;12.40;99.90
43673;DHT22;41723;49.326;8.430;2022-09-17T03:12:36;12.40;99.90
43673;DHT22;41723;49.326;8.430;2022-09-17T03:15:02;12.40;99.90
43673;DHT22;41723;49.326;8.430;2022-09-17T03:17:28;12.40;99.90
43673;DHT22;41723;49.326;8.430;2022-09-17T03:19:53;12.30;99.90
43673;DHT22;41723;49.326;8.430;2022-09-17T03:22:19;12.10;99.90
43673;DHT22;41723;49.326;8.430;2022-09-17T03:24:45;12.00;99.90
43673;DHT22;41723;49.326;8.430;2022-09-17T03:27:11;11.90;99.90
43673;DHT22;41723;49.326;8.430;2022-09-17T03:29:36;12.00;99.90
43673;DHT22;41723;49.326;8.430;2022-09-17T03:32:02;12.10;99.90
43673;DHT22;41723;49.326;8.430;2022-09-17T03:34:28;12.20;99.90
43673;DHT22;41723;49.326;8.430;2022-09-17T03:36:53;12.20;99.90
43673;DHT22;41723;49.326;8.430;2022-09-17T03:39:19;12.30;99.90
43673;DHT22;41723;49.326;8.430;2022-09-17T03:41:44;12.10;99.90
43673;DHT22;41723;49.326;8.430;2022-09-17T03:44:10;12.10;99.90
43673;DHT22;41723;49.326;8.430;2022-09-17T03:46:36;12.10;99.90
43673;DHT22;41723;49.326;8.430;2022-09-17T03:49:02;12.10;99.90
43673;DHT22;41723;49.326;8.430;2022-09-17T03:51:28;12.20;99.90
43673;DHT22;41723;49.326;8.430;2022-09-17T03:53:53;12.20;99.90
43673;DHT22;41723;49.326;8.430;2022-09-17T03:56:19;12.10;99.90
43673;DHT22;41723;49.326;8.430;2022-09-17T03:58:44;12.00;99.90
43673;DHT22;41723;49.326;8.430;2022-09-17T04:01:10;12.00;99.90
43673;DHT22;41723;49.326;8.430;2022-09-17T04:03:35;11.90;99.90
43673;DHT22;41723;49.326;8.430;2022-09-17T04:06:01;11.90;99.90
43673;DHT22;41723;49.326;8.430;2022-09-17T04:08:27;11.90;99.90
43673;DHT22;41723;49.326;8.430;2022-09-17T04:10:52;11.90;99.90
43673;DHT22;41723;49.326;8.430;2022-09-17T04:13:18;12.00;99.90
43673;DHT22;41723;49.326;8.430;2022-09-17T04:15:44;11.90;99.90
43673;DHT22;41723;49.326;8.430;2022-09-17T04:18:10;11.90;99.90
43673;DHT22;41723;49.326;8.430;2022-09-17T04:20:36;12.00;99.90
43673;DHT22;41723;49.326;8.430;2022-09-17T04:23:01;12.10;99.90
43673;DHT22;41723;49.326;8.430;2022-09-17T04:25:27;12.10;99.90
43673;DHT22;41723;49.326;8.430;2022-09-17T04:27:52;12.10;99.90
43673;DHT22;41723;49.326;8.430;2022-09-17T04:30:18;12.20;99.90
43673;DHT22;41723;49.326;8.430;2022-09-17T04:32:44;12.20;99.90
43673;DHT22;41723;49.326;8.430;2022-09-17T04:35:10;12.20;99.90
43673;DHT22;41723;49.326;8.430;2022-09-17T04:37:36;12.20;99.90
43673;DHT22;41723;49.326;8.430;2022-09-17T04:40:02;12.20;99.90
43673;DHT22;41723;49.326;8.430;2022-09-17T04:42:27;12.20;99.90
43673;DHT22;41723;49.326;8.430;2022-09-17T04:44:53;12.20;99.90
43673;DHT22;41723;49.326;8.430;2022-09-17T04:47:19;12.20;99.90
43673;DHT22;41723;49.326;8.430;2022-09-17T04:49:44;12.20;99.90
43673;DHT22;41723;49.326;8.430;2022-09-17T04:52:10;12.10;99.90
43673;DHT22;41723;49.326;8.430;2022-09-17T04:54:35;12.20;99.90
43673;DHT22;41723;49.326;8.430;2022-09-17T04:57:01;12.10;99.90
43673;DHT22;41723;49.326;8.430;2022-09-17T04:59:26;12.20;99.90
43673;DHT22;41723;49.326;8.430;2022-09-17T05:01:52;12.10;99.90
43673;DHT22;41723;49.326;8.430;2022-09-17T05:04:18;12.10;99.90
43673;DHT22;41723;49.326;8.430;2022-09-17T05:06:43;12.10;99.90
43673;DHT22;41723;49.326;8.430;2022-09-17T05:09:09;12.10;99.90
43673;DHT22;41723;49.326;8.430;2022-09-17T05:11:34;12.20;99.90
43673;DHT22;41723;49.326;8.430;2022-09-17T05:14:00;12.10;99.90
43673;DHT22;41723;49.326;8.430;2022-09-17T05:16:26;12.20;99.90
43673;DHT22;41723;49.326;8.430;2022-09-17T05:18:51;12.20;99.90
43673;DHT22;41723;49.326;8.430;2022-09-17T05:21:17;12.20;99.90
43673;DHT22;41723;49.326;8.430;2022-09-17T05:23:43;12.20;99.90
43673;DHT22;41723;49.326;8.430;2022-09-17T05:26:09;12.20;99.90
43673;DHT22;41723;49.326;8.430;2022-09-17T05:28:34;12.30;99.90
43673;DHT22;41723;49.326;8.430;2022-09-17T05:31:00;12.30;99.90
43673;DHT22;41723;49.326;8.430;2022-09-17T05:33:26;12.20;99.90
43673;DHT22;41723;49.326;8.430;2022-09-17T05:35:52;12.20;99.90
43673;DHT22;41723;49.326;8.430;2022-09-17T05:38:17;12.30;99.90
43673;DHT22;41723;49.326;8.430;2022-09-17T05:40:44;12.40;99.90
43673;DHT22;41723;49.326;8.430;2022-09-17T05:43:10;12.40;99.90
43673;DHT22;41723;49.326;8.430;2022-09-17T05:45:36;12.30;99.90
43673;DHT22;41723;49.326;8.430;2022-09-17T05:48:02;12.20;99.90
43673;DHT22;41723;49.326;8.430;2022-09-17T05:50:28;12.10;99.90
43673;DHT22;41723;49.326;8.430;2022-09-17T05:52:55;12.20;99.90
43673;DHT22;41723;49.326;8.430;2022-09-17T05:55:21;12.10;99.90
43673;DHT22;41723;49.326;8.430;2022-09-17T05:57:47;12.20;99.90
43673;DHT22;41723;49.326;8.430;2022-09-17T06:00:13;12.10;99.90
43673;DHT22;41723;49.326;8.430;2022-09-17T06:02:39;12.20;99.90
43673;DHT22;41723;49.326;8.430;2022-09-17T06:05:05;12.20;99.90
43673;DHT22;41723;49.326;8.430;2022-09-17T06:07:30;12.30;99.90
43673;DHT22;41723;49.326;8.430;2022-09-17T06:09:56;12.40;99.90
43673;DHT22;41723;49.326;8.430;2022-09-17T06:12:21;12.40;99.90
43673;DHT22;41723;49.326;8.430;2022-09-17T06:14:47;12.40;99.90
43673;DHT22;41723;49.326;8.430;2022-09-17T06:17:13;12.50;99.90
43673;DHT22;41723;49.326;8.430;2022-09-17T06:19:38;12.40;99.90
43673;DHT22;41723;49.326;8.430;2022-09-17T06:22:04;12.40;99.90
43673;DHT22;41723;49.326;8.430;2022-09-17T06:24:32;12.40;99.90
43673;DHT22;41723;49.326;8.430;2022-09-17T06:26:57;12.40;99.90
43673;DHT22;41723;49.326;8.430;2022-09-17T06:29:23;12.50;99.90
43673;DHT22;41723;49.326;8.430;2022-09-17T06:31:49;12.50;99.90
43673;DHT22;41723;49.326;8.430;2022-09-17T06:34:15;12.60;99.90
43673;DHT22;41723;49.326;8.430;2022-09-17T06:36:40;12.60;99.90
43673;DHT22;41723;49.326;8.430;2022-09-17T06:39:06;12.50;99.90
43673;DHT22;41723;49.326;8.430;2022-09-17T06:41:31;12.40;99.90
43673;DHT22;41723;49.326;8.430;2022-09-17T06:43:57;12.50;99.90
43673;DHT22;41723;49.326;8.430;2022-09-17T06:46:23;12.50;99.90
43673;DHT22;41723;49.326;8.430;2022-09-17T06:48:49;12.60;99.90
43673;DHT22;41723;49.326;8.430;2022-09-17T06:51:14;12.50;99.90
43673;DHT22;41723;49.326;8.430;2022-09-17T06:53:40;12.60;99.90
43673;DHT22;41723;49.326;8.430;2022-09-17T06:56:06;12.40;99.90
43673;DHT22;41723;49.326;8.430;2022-09-17T06:58:33;12.50;99.90
43673;DHT22;41723;49.326;8.430;2022-09-17T07:01:01;12.60;99.90
43673;DHT22;41723;49.326;8.430;2022-09-17T07:03:27;12.60;99.90
43673;DHT22;41723;49.326;8.430;2022-09-17T07:05:53;12.60;99.90
43673;DHT22;41723;49.326;8.430;2022-09-17T07:08:18;12.60;99.90
43673;DHT22;41723;49.326;8.430;2022-09-17T07:10:44;12.60;99.90
43673;DHT22;41723;49.326;8.430;2022-09-17T07:13:09;12.60;99.90
43673;DHT22;41723;49.326;8.430;2022-09-17T07:15:35;12.70;99.90
43673;DHT22;41723;49.326;8.430;2022-09-17T07:18:07;12.80;99.90
43673;DHT22;41723;49.326;8.430;2022-09-17T07:20:33;12.80;99.90
43673;DHT22;41723;49.326;8.430;2022-09-17T07:23:00;12.80;99.90
43673;DHT22;41723;49.326;8.430;2022-09-17T07:25:25;12.90;99.90
43673;DHT22;41723;49.326;8.430;2022-09-17T07:27:52;12.90;99.90
43673;DHT22;41723;49.326;8.430;2022-09-17T07:30:18;12.90;99.90
43673;DHT22;41723;49.326;8.430;2022-09-17T07:32:44;13.00;99.90
43673;DHT22;41723;49.326;8.430;2022-09-17T07:35:10;13.10;99.90
43673;DHT22;41723;49.326;8.430;2022-09-17T07:37:35;13.20;99.90
43673;DHT22;41723;49.326;8.430;2022-09-17T07:40:01;13.20;99.90
43673;DHT22;41723;49.326;8.430;2022-09-17T07:42:26;13.30;99.90
43673;DHT22;41723;49.326;8.430;2022-09-17T07:44:52;13.30;99.90
43673;DHT22;41723;49.326;8.430;2022-09-17T07:47:18;13.30;99.90
43673;DHT22;41723;49.326;8.430;2022-09-17T07:49:44;13.30;99.90
43673;DHT22;41723;49.326;8.430;2022-09-17T07:52:10;13.40;99.90
43673;DHT22;41723;49.326;8.430;2022-09-17T07:54:35;13.50;99.90
43673;DHT22;41723;49.326;8.430;2022-09-17T07:57:01;13.60;99.90
43673;DHT22;41723;49.326;8.430;2022-09-17T07:59:27;13.50;99.90
43673;DHT22;41723;49.326;8.430;2022-09-17T08:01:53;13.70;99.90
43673;DHT22;41723;49.326;8.430;2022-09-17T08:04:18;13.80;99.90
43673;DHT22;41723;49.326;8.430;2022-09-17T08:06:44;13.90;99.90
43673;DHT22;41723;49.326;8.430;2022-09-17T08:09:13;14.10;99.90
43673;DHT22;41723;49.326;8.430;2022-09-17T08:11:39;14.10;99.90
43673;DHT22;41723;49.326;8.430;2022-09-17T08:14:05;14.20;99.90
43673;DHT22;41723;49.326;8.430;2022-09-17T08:16:31;14.30;99.90
43673;DHT22;41723;49.326;8.430;2022-09-17T08:18:57;14.40;99.90
43673;DHT22;41723;49.326;8.430;2022-09-17T08:21:23;14.40;99.90
43673;DHT22;41723;49.326;8.430;2022-09-17T08:23:48;14.40;99.90
43673;DHT22;41723;49.326;8.430;2022-09-17T08:26:17;14.50;99.60
43673;DHT22;41723;49.326;8.430;2022-09-17T08:28:43;14.40;99.50
43673;DHT22;41723;49.326;8.430;2022-09-17T08:31:09;14.30;99.90
43673;DHT22;41723;49.326;8.430;2022-09-17T08:33:35;14.30;99.90
43673;DHT22;41723;49.326;8.430;2022-09-17T08:36:02;14.40;99.90
43673;DHT22;41723;49.326;8.430;2022-09-17T08:38:30;14.50;99.40
43673;DHT22;41723;49.326;8.430;2022-09-17T08:43:35;14.80;99.40
43673;DHT22;41723;49.326;8.430;2022-09-17T08:46:04;14.80;99.50
43673;DHT22;41723;49.326;8.430;2022-09-17T08:48:31;14.90;99.70
43673;DHT22;41723;49.326;8.430;2022-09-17T08:51:01;14.80;98.80
43673;DHT22;41723;49.326;8.430;2022-09-17T08:56:15;14.90;99.10
43673;DHT22;41723;49.326;8.430;2022-09-17T09:01:08;14.70;97.90
43673;DHT22;41723;49.326;8.430;2022-09-17T09:06:15;14.60;97.60
43673;DHT22;41723;49.326;8.430;2022-09-17T09:08:43;14.40;97.60
43673;DHT22;41723;49.326;8.430;2022-09-17T09:11:12;14.50;97.60
43673;DHT22;41723;49.326;8.430;2022-09-17T09:13:40;14.60;97.90
43673;DHT22;41723;49.326;8.430;2022-09-17T09:16:10;14.60;97.30
43673;DHT22;41723;49.326;8.430;2022-09-17T09:18:39;14.70;97.90
43673;DHT22;41723;49.326;8.430;2022-09-17T09:23:44;14.70;96.80
43673;DHT22;41723;49.326;8.430;2022-09-17T09:26:16;14.90;97.10
43673;DHT22;41723;49.326;8.430;2022-09-17T09:31:30;14.70;97.50
43673;DHT22;41723;49.326;8.430;2022-09-17T09:34:00;14.80;97.10
43673;DHT22;41723;49.326;8.430;2022-09-17T09:36:27;14.90;97.40
43673;DHT22;41723;49.326;8.430;2022-09-17T09:39:00;14.70;97.40
43673;DHT22;41723;49.326;8.430;2022-09-17T09:41:31;14.90;97.60
43673;DHT22;41723;49.326;8.430;2022-09-17T09:44:08;15.10;98.00
43673;DHT22;41723;49.326;8.430;2022-09-17T09:57:03;15.30;95.40
43673;DHT22;41723;49.326;8.430;2022-09-17T09:59:31;15.60;95.20
43673;DHT22;41723;49.326;8.430;2022-09-17T10:01:57;15.70;94.70
43673;DHT22;41723;49.326;8.430;2022-09-17T10:04:24;15.70;94.40
43673;DHT22;41723;49.326;8.430;2022-09-17T10:06:54;15.70;94.40
43673;DHT22;41723;49.326;8.430;2022-09-17T10:09:24;15.60;94.80
43673;DHT22;41723;49.326;8.430;2022-09-17T10:12:03;15.70;94.90
43673;DHT22;41723;49.326;8.430;2022-09-17T10:14:30;15.70;94.20
43673;DHT22;41723;49.326;8.430;2022-09-17T10:17:10;15.60;94.70
43673;DHT22;41723;49.326;8.430;2022-09-17T10:19:37;15.40;94.60
43673;DHT22;41723;49.326;8.430;2022-09-17T10:22:17;15.20;95.20
43673;DHT22;41723;49.326;8.430;2022-09-17T10:24:44;15.10;95.10
43673;DHT22;41723;49.326;8.430;2022-09-17T10:27:14;15.10;95.80
43673;DHT22;41723;49.326;8.430;2022-09-17T10:29:45;15.30;95.30
43673;DHT22;41723;49.326;8.430;2022-09-17T10:32:15;15.40;95.40
43673;DHT22;41723;49.326;8.430;2022-09-17T10:34:42;15.30;95.00
43673;DHT22;41723;49.326;8.430;2022-09-17T10:37:30;15.40;95.70
43673;DHT22;41723;49.326;8.430;2022-09-17T10:39:57;15.30;95.30
43673;DHT22;41723;49.326;8.430;2022-09-17T10:42:23;15.40;95.00
43673;DHT22;41723;49.326;8.430;2022-09-17T10:44:55;15.50;94.60
43673;DHT22;41723;49.326;8.430;2022-09-17T10:47:23;15.50;94.70
43673;DHT22;41723;49.326;8.430;2022-09-17T10:49:54;15.60;94.80
43673;DHT22;41723;49.326;8.430;2022-09-17T10:52:24;15.80;94.30
43673;DHT22;41723;49.326;8.430;2022-09-17T10:57:38;15.60;93.60
43673;DHT22;41723;49.326;8.430;2022-09-17T11:00:11;15.60;93.10
43673;DHT22;41723;49.326;8.430;2022-09-17T11:07:59;15.50;93.20
43673;DHT22;41723;49.326;8.430;2022-09-17T11:10:33;15.40;94.80
43673;DHT22;41723;49.326;8.430;2022-09-17T11:20:56;15.20;95.70
43673;DHT22;41723;49.326;8.430;2022-09-17T11:26:12;15.30;95.80
43673;DHT22;41723;49.326;8.430;2022-09-17T11:34:11;15.20;95.40
43673;DHT22;41723;49.326;8.430;2022-09-17T11:39:21;15.50;94.70
43673;DHT22;41723;49.326;8.430;2022-09-17T11:41:49;15.70;94.60
43673;DHT22;41723;49.326;8.430;2022-09-17T11:44:23;15.70;95.10
43673;DHT22;41723;49.326;8.430;2022-09-17T11:46:53;15.80;95.00
43673;DHT22;41723;49.326;8.430;2022-09-17T11:49:28;15.70;95.20
43673;DHT22;41723;49.326;8.430;2022-09-17T11:51:58;15.70;95.40
43673;DHT22;41723;49.326;8.430;2022-09-17T11:54:30;15.80;95.30
43673;DHT22;41723;49.326;8.430;2022-09-17T11:57:16;15.80;95.10
43673;DHT22;41723;49.326;8.430;2022-09-17T11:59:49;15.80;94.60
43673;DHT22;41723;49.326;8.430;2022-09-17T12:03:17;15.80;95.10
43673;DHT22;41723;49.326;8.430;2022-09-17T12:05:33;15.60;94.80
43673;DHT22;41723;49.326;8.430;2022-09-17T12:08:20;15.60;94.60
43673;DHT22;41723;49.326;8.430;2022-09-17T12:16:02;16.00;94.90
43673;DHT22;41723;49.326;8.430;2022-09-17T12:21:07;16.00;94.10
43673;DHT22;41723;49.326;8.430;2022-09-17T12:26:30;16.10;93.60
43673;DHT22;41723;49.326;8.430;2022-09-17T12:37:15;16.20;92.50
43673;DHT22;41723;49.326;8.430;2022-09-17T12:52:29;16.90;93.00
43673;DHT22;41723;49.326;8.430;2022-09-17T13:00:02;17.20;92.80
43673;DHT22;41723;49.326;8.430;2022-09-17T13:02:30;17.60;93.10
43673;DHT22;41723;49.326;8.430;2022-09-17T13:12:55;17.60;93.10
43673;DHT22;41723;49.326;8.430;2022-09-17T13:17:57;17.50;93.00
43673;DHT22;41723;49.326;8.430;2022-09-17T13:20:37;17.30;93.20
43673;DHT22;41723;49.326;8.430;2022-09-17T13:23:05;17.20;93.60
43673;DHT22;41723;49.326;8.430;2022-09-17T13:25:30;17.10;93.90
43673;DHT22;41723;49.326;8.430;2022-09-17T13:28:09;17.00;94.10
43673;DHT22;41723;49.326;8.430;2022-09-17T13:30:54;16.90;94.30
43673;DHT22;41723;49.326;8.430;2022-09-17T13:36:19;16.60;94.90
43673;DHT22;41723;49.326;8.430;2022-09-17T13:38:51;16.50;94.40
43673;DHT22;41723;49.326;8.430;2022-09-17T13:41:17;16.70;94.80
43673;DHT22;41723;49.326;8.430;2022-09-17T13:43:46;17.10;93.60
43673;DHT22;41723;49.326;8.430;2022-09-17T13:46:13;17.10;93.20
43673;DHT22;41723;49.326;8.430;2022-09-17T13:48:44;17.20;93.40
43673;DHT22;41723;49.326;8.430;2022-09-17T13:53:58;17.50;93.00
43673;DHT22;41723;49.326;8.430;2022-09-17T13:56:43;17.30;92.20
43673;DHT22;41723;49.326;8.430;2022-09-17T14:06:57;17.50;92.50
43673;DHT22;41723;49.326;8.430;2022-09-17T14:09:34;17.40;91.90
43673;DHT22;41723;49.326;8.430;2022-09-17T14:14:53;17.20;92.30
43673;DHT22;41723;49.326;8.430;2022-09-17T14:20:03;17.40;92.60
43673;DHT22;41723;49.326;8.430;2022-09-17T14:22:30;17.60;92.40
43673;DHT22;41723;49.326;8.430;2022-09-17T14:24:56;17.70;92.20
43673;DHT22;41723;49.326;8.430;2022-09-17T14:29:58;17.60;92.60
43673;DHT22;41723;49.326;8.430;2022-09-17T14:32:27;17.50;92.60
43673;DHT22;41723;49.326;8.430;2022-09-17T14:35:01;17.50;92.90
43673;DHT22;41723;49.326;8.430;2022-09-17T14:37:28;17.60;92.30
43673;DHT22;41723;49.326;8.430;2022-09-17T14:39:54;17.40;91.70
43673;DHT22;41723;49.326;8.430;2022-09-17T14:42:21;17.30;92.20
43673;DHT22;41723;49.326;8.430;2022-09-17T14:44:53;17.40;91.90
43673;DHT22;41723;49.326;8.430;2022-09-17T14:47:20;17.30;92.00
43673;DHT22;41723;49.326;8.430;2022-09-17T14:49:46;17.40;92.20
43673;DHT22;41723;49.326;8.430;2022-09-17T14:54:48;17.20;92.30
43673;DHT22;41723;49.326;8.430;2022-09-17T14:57:23;17.40;91.80
43673;DHT22;41723;49.326;8.430;2022-09-17T14:59:51;17.20;91.40
43673;DHT22;41723;49.326;8.430;2022-09-17T15:02:28;17.10;91.80
43673;DHT22;41723;49.326;8.430;2022-09-17T15:04:56;17.00;91.70
43673;DHT22;41723;49.326;8.430;2022-09-17T15:07:22;16.80;92.40
43673;DHT22;41723;49.326;8.430;2022-09-17T15:09:47;16.80;92.30
43673;DHT22;41723;49.326;8.430;2022-09-17T15:12:16;16.80;92.60
43673;DHT22;41723;49.326;8.430;2022-09-17T15:14:42;16.70;92.90
43673;DHT22;41723;49.326;8.430;2022-09-17T15:17:14;16.60;93.20
43673;DHT22;41723;49.326;8.430;2022-09-17T15:19:44;16.50;93.20
43673;DHT22;41723;49.326;8.430;2022-09-17T15:24:58;16.30;94.40
43673;DHT22;41723;49.326;8.430;2022-09-17T15:27:40;16.20;94.00
43673;DHT22;41723;49.326;8.430;2022-09-17T15:30:14;16.10;95.50
43673;DHT22;41723;49.326;8.430;2022-09-17T15:32:50;16.10;94.90
43673;DHT22;41723;49.326;8.430;2022-09-17T15:35:19;15.90;94.70
43673;DHT22;41723;49.326;8.430;2022-09-17T15:37:49;15.90;94.40
43673;DHT22;41723;49.326;8.430;2022-09-17T15:40:37;15.80;94.60
43673;DHT22;41723;49.326;8.430;2022-09-17T15:43:46;15.80;93.80
43673;DHT22;41723;49.326;8.430;2022-09-17T15:45:47;15.60;93.70
43673;DHT22;41723;49.326;8.430;2022-09-17T15:50:51;15.60;94.10
43673;DHT22;41723;49.326;8.430;2022-09-17T15:53:25;15.60;94.40
43673;DHT22;41723;49.326;8.430;2022-09-17T16:06:50;15.50;95.60
43673;DHT22;41723;49.326;8.430;2022-09-17T16:08:54;15.40;95.80
43673;DHT22;41723;49.326;8.430;2022-09-17T16:11:21;15.50;95.90
43673;DHT22;41723;49.326;8.430;2022-09-17T16:13:47;15.50;97.60
43673;DHT22;41723;49.326;8.430;2022-09-17T16:16:14;15.60;96.90
43673;DHT22;41723;49.326;8.430;2022-09-17T16:18:39;15.50;96.20
43673;DHT22;41723;49.326;8.430;2022-09-17T16:21:06;15.40;96.60
43673;DHT22;41723;49.326;8.430;2022-09-17T16:23:32;15.50;99.20
43673;DHT22;41723;49.326;8.430;2022-09-17T16:25:57;15.50;96.90
43673;DHT22;41723;49.326;8.430;2022-09-17T16:28:23;15.60;96.90
43673;DHT22;41723;49.326;8.430;2022-09-17T16:30:49;15.50;96.40
43673;DHT22;41723;49.326;8.430;2022-09-17T16:33:15;15.70;97.90
43673;DHT22;41723;49.326;8.430;2022-09-17T16:35:41;15.60;97.40
43673;DHT22;41723;49.326;8.430;2022-09-17T16:38:07;15.60;96.40
43673;DHT22;41723;49.326;8.430;2022-09-17T16:40:33;15.50;96.10
43673;DHT22;41723;49.326;8.430;2022-09-17T16:43:00;15.50;96.80
43673;DHT22;41723;49.326;8.430;2022-09-17T16:45:26;15.50;96.50
43673;DHT22;41723;49.326;8.430;2022-09-17T16:47:52;15.60;97.00
43673;DHT22;41723;49.326;8.430;2022-09-17T16:50:17;15.50;96.90
43673;DHT22;41723;49.326;8.430;2022-09-17T16:52:43;15.40;97.70
43673;DHT22;41723;49.326;8.430;2022-09-17T16:55:10;15.40;98.80
43673;DHT22;41723;49.326;8.430;2022-09-17T16:57:36;15.30;97.30
43673;DHT22;41723;49.326;8.430;2022-09-17T17:00:03;15.40;97.80
43673;DHT22;41723;49.326;8.430;2022-09-17T17:02:29;15.20;96.30
43673;DHT22;41723;49.326;8.430;2022-09-17T17:04:55;14.90;96.60
43673;DHT22;41723;49.326;8.430;2022-09-17T17:07:20;15.00;96.70
43673;DHT22;41723;49.326;8.430;2022-09-17T17:09:46;14.90;96.50
43673;DHT22;41723;49.326;8.430;2022-09-17T17:12:12;14.90;96.80
43673;DHT22;41723;49.326;8.430;2022-09-17T17:14:37;14.90;97.60
43673;DHT22;41723;49.326;8.430;2022-09-17T17:17:03;14.70;97.50
43673;DHT22;41723;49.326;8.430;2022-09-17T17:19:34;14.70;97.80
43673;DHT22;41723;49.326;8.430;2022-09-17T17:22:01;14.90;97.80
43673;DHT22;41723;49.326;8.430;2022-09-17T17:24:26;14.70;97.70
43673;DHT22;41723;49.326;8.430;2022-09-17T17:26:52;14.70;97.80
43673;DHT22;41723;49.326;8.430;2022-09-17T17:29:17;14.60;98.00
43673;DHT22;41723;49.326;8.430;2022-09-17T17:31:43;14.60;98.20
43673;DHT22;41723;49.326;8.430;2022-09-17T17:34:09;14.60;97.90
43673;DHT22;41723;49.326;8.430;2022-09-17T17:36:34;14.50;98.40
43673;DHT22;41723;49.326;8.430;2022-09-17T17:39:00;14.50;98.80
43673;DHT22;41723;49.326;8.430;2022-09-17T17:41:26;14.50;98.70
43673;DHT22;41723;49.326;8.430;2022-09-17T17:43:53;14.50;98.90
43673;DHT22;41723;49.326;8.430;2022-09-17T17:46:18;14.40;99.10
43673;DHT22;41723;49.326;8.430;2022-09-17T17:48:44;14.40;99.60
43673;DHT22;41723;49.326;8.430;2022-09-17T17:51:10;14.40;99.40
43673;DHT22;41723;49.326;8.430;2022-09-17T17:53:36;14.20;99.60
43673;DHT22;41723;49.326;8.430;2022-09-17T17:56:03;14.20;98.70
43673;DHT22;41723;49.326;8.430;2022-09-17T17:58:30;14.30;98.80
43673;DHT22;41723;49.326;8.430;2022-09-17T18:00:56;14.30;98.70
43673;DHT22;41723;49.326;8.430;2022-09-17T18:03:21;14.20;98.60
43673;DHT22;41723;49.326;8.430;2022-09-17T18:05:52;14.30;98.40
43673;DHT22;41723;49.326;8.430;2022-09-17T18:08:23;14.20;97.90
43673;DHT22;41723;49.326;8.430;2022-09-17T18:10:50;14.30;97.90
43673;DHT22;41723;49.326;8.430;2022-09-17T18:13:16;14.10;97.50
43673;DHT22;41723;49.326;8.430;2022-09-17T18:15:49;14.10;97.70
43673;DHT22;41723;49.326;8.430;2022-09-17T18:18:14;14.20;97.70
43673;DHT22;41723;49.326;8.430;2022-09-17T18:20:40;14.00;97.60
43673;DHT22;41723;49.326;8.430;2022-09-17T18:23:06;14.00;97.50
43673;DHT22;41723;49.326;8.430;2022-09-17T18:25:31;13.90;97.30
43673;DHT22;41723;49.326;8.430;2022-09-17T18:27:57;13.90;97.60
43673;DHT22;41723;49.326;8.430;2022-09-17T18:30:22;13.80;97.80
43673;DHT22;41723;49.326;8.430;2022-09-17T18:32:48;13.80;97.60
43673;DHT22;41723;49.326;8.430;2022-09-17T18:35:14;13.90;97.60
43673;DHT22;41723;49.326;8.430;2022-09-17T18:37:44;13.80;97.50
43673;DHT22;41723;49.326;8.430;2022-09-17T18:40:10;13.90;97.20
43673;DHT22;41723;49.326;8.430;2022-09-17T18:42:35;13.90;97.40